CYYJ/YYJ METAR and TAF weather

Enter ICAO airport designator
Station Type Date Time Source
CYYJ METAR 2018/04/23 11:00 UTC NOAA

CYYJ 231100Z 29005KT 20SM SKC 05/02 A3037 RMK SLP286


Station Type Date Time Source
CYYJ Decoded METAR 2018/04/23 11:00 UTC NOAA

Victoria Int. Airport, B. C., Canada (CYYJ) 48-39N 123-26W 19M
Apr 23, 2018 - 07:00 AM EDT / 2018.04.23 1100 UTC
Wind: from the WNW (290 degrees) at 6 MPH (5 KT):0
Visibility: 20 mile(s):0
Sky conditions: clear
Temperature: 41 F (5 C)
Dew Point: 35 F (2 C)
Relative Humidity: 80%
Pressure (altimeter): 30.37 in. Hg (1028 hPa)
ob: CYYJ 231100Z 29005KT 20SM SKC 05/02 A3037 RMK SLP286
cycle: 11

Station Type Date Time Source
CYYJ TAF 2018/04/23 06:39 UTC NOAA

TAF CYYJ 230538Z 2306/2406 VRB03KT P6SM SKC
BECMG 2310/2312 30007KT
RMK NXT FCST BY 231200Z


Example: see airport list